createdAt,value
2018-04-08T04:00:44.593Z,0
2018-04-08T04:01:10.103Z,0
2018-04-08T04:01:35.611Z,0
2018-04-08T04:02:01.115Z,0
2018-04-08T04:02:26.611Z,0
2018-04-08T04:02:52.110Z,0
2018-04-08T04:03:17.614Z,0
2018-04-08T04:03:43.114Z,0
2018-04-08T04:04:08.618Z,0
2018-04-08T04:04:34.102Z,0
2018-04-08T04:04:59.585Z,0
2018-04-08T04:05:25.100Z,0
2018-04-08T04:05:50.595Z,0
2018-04-08T04:06:16.104Z,0
2018-04-08T04:06:41.601Z,0
2018-04-08T04:07:07.090Z,0
2018-04-08T04:07:32.587Z,0
2018-04-08T04:07:58.116Z,0
2018-04-08T04:08:23.615Z,0
2018-04-08T04:08:49.099Z,0
2018-04-08T04:09:14.572Z,0
2018-04-08T04:09:40.061Z,0
2018-04-08T04:10:05.550Z,0
2018-04-08T04:10:31.061Z,0
2018-04-08T04:10:56.566Z,0
2018-04-08T04:11:22.070Z,0
2018-04-08T04:11:47.563Z,0
2018-04-08T04:12:13.064Z,0
2018-04-08T04:12:38.565Z,0
2018-04-08T04:13:04.069Z,0
2018-04-08T04:13:29.571Z,0
2018-04-08T04:13:55.061Z,0
2018-04-08T04:14:20.553Z,0
2018-04-08T04:14:46.048Z,0
2018-04-08T04:15:11.549Z,0
2018-04-08T04:15:37.043Z,0
2018-04-08T04:16:02.543Z,0
2018-04-08T04:16:28.037Z,0
2018-04-08T04:16:53.534Z,0
2018-04-08T04:17:19.030Z,0
2018-04-08T04:17:44.532Z,0
2018-04-08T04:18:10.033Z,0
2018-04-08T04:18:35.522Z,0
2018-04-08T04:19:01.021Z,0
2018-04-08T04:19:26.505Z,0
2018-04-08T04:19:51.998Z,0
2018-04-08T04:20:17.487Z,0
2018-04-08T04:20:42.999Z,0
2018-04-08T04:21:08.505Z,0
2018-04-08T04:21:34.021Z,0
2018-04-08T04:21:59.515Z,0
2018-04-08T04:22:25.014Z,0
2018-04-08T04:22:50.514Z,0
2018-04-08T04:23:16.006Z,0
2018-04-08T04:23:41.507Z,0
2018-04-08T04:24:07.006Z,0
2018-04-08T04:24:32.501Z,0
2018-04-08T04:24:58.002Z,0
2018-04-08T04:25:23.504Z,0
2018-04-08T04:25:49.011Z,0
2018-04-08T04:26:14.519Z,0
2018-04-08T04:26:40.019Z,0
2018-04-08T04:27:05.509Z,0
2018-04-08T04:27:31.012Z,0
2018-04-08T04:27:56.539Z,0
2018-04-08T04:28:22.050Z,0
2018-04-08T04:28:47.549Z,0
2018-04-08T04:29:13.051Z,0
2018-04-08T04:29:38.539Z,0
2018-04-08T04:30:04.053Z,0
2018-04-08T04:30:29.570Z,0
2018-04-08T04:30:55.078Z,0
2018-04-08T04:31:20.561Z,0
2018-04-08T04:31:46.060Z,0
2018-04-08T04:32:11.564Z,0
2018-04-08T04:32:37.074Z,0
2018-04-08T04:33:02.558Z,0
2018-04-08T04:33:28.053Z,0
2018-04-08T04:33:53.550Z,0
2018-04-08T04:34:19.023Z,0
2018-04-08T04:34:44.514Z,0
2018-04-08T04:35:10.017Z,0
2018-04-08T04:35:35.542Z,0
2018-04-08T04:36:01.024Z,0
2018-04-08T04:36:26.549Z,0
2018-04-08T04:36:52.050Z,0
2018-04-08T04:37:17.539Z,0
2018-04-08T04:37:43.103Z,0
2018-04-08T04:38:08.552Z,0
2018-04-08T04:38:34.041Z,0
2018-04-08T04:38:59.536Z,0
2018-04-08T04:39:25.037Z,0
2018-04-08T04:39:50.528Z,0
2018-04-08T04:40:16.015Z,0
2018-04-08T04:40:41.511Z,0
2018-04-08T04:41:07.025Z,0
2018-04-08T04:41:32.524Z,0
2018-04-08T04:41:58.023Z,0
2018-04-08T04:42:23.531Z,0
2018-04-08T04:42:49.019Z,0
2018-04-08T04:43:14.524Z,0
2018-04-08T04:43:40.025Z,5
2018-04-08T04:44:05.550Z,5
2018-04-08T04:44:31.031Z,5
2018-04-08T04:44:56.529Z,5
2018-04-08T04:45:22.028Z,5
2018-04-08T04:45:47.524Z,5
2018-04-08T04:46:13.023Z,5
2018-04-08T04:46:38.526Z,5
2018-04-08T04:47:04.024Z,5
2018-04-08T04:47:29.497Z,5
2018-04-08T04:47:55.006Z,5
2018-04-08T04:48:20.505Z,5
2018-04-08T04:48:45.992Z,5
2018-04-08T04:49:11.480Z,5
2018-04-08T04:49:36.978Z,5
2018-04-08T04:50:02.477Z,10
2018-04-08T04:50:27.969Z,10
2018-04-08T04:50:53.461Z,10
2018-04-08T04:51:18.978Z,10
2018-04-08T04:51:44.444Z,10
2018-04-08T04:52:09.930Z,10
2018-04-08T04:52:35.456Z,10
2018-04-08T04:53:00.940Z,10
2018-04-08T04:53:26.454Z,10
2018-04-08T04:53:51.955Z,10
2018-04-08T04:54:17.449Z,10
2018-04-08T04:54:42.943Z,15
2018-04-08T04:55:08.446Z,15
2018-04-08T04:55:33.948Z,15
2018-04-08T04:55:59.416Z,15
2018-04-08T04:56:24.929Z,15
2018-04-08T04:56:50.422Z,15
2018-04-08T04:57:15.922Z,15
2018-04-08T04:57:41.420Z,15
2018-04-08T04:58:06.919Z,15
2018-04-08T04:58:32.405Z,15
2018-04-08T04:58:57.906Z,20
2018-04-08T04:59:23.405Z,20
2018-04-08T04:59:48.921Z,20
2018-04-08T05:00:14.419Z,20
2018-04-08T05:00:39.918Z,20
2018-04-08T05:01:05.421Z,20
2018-04-08T05:01:30.914Z,20
2018-04-08T05:01:56.416Z,20
2018-04-08T05:02:21.928Z,20
2018-04-08T05:02:47.430Z,25
2018-04-08T05:03:12.939Z,25
2018-04-08T05:03:38.491Z,25
2018-04-08T05:04:03.953Z,25
2018-04-08T05:04:29.451Z,25
2018-04-08T05:04:54.950Z,25
2018-04-08T05:05:20.452Z,25
2018-04-08T05:05:45.964Z,30
2018-04-08T05:06:11.469Z,30
2018-04-08T05:06:36.975Z,30
2018-04-08T05:07:02.473Z,30
2018-04-08T05:07:27.984Z,30
2018-04-08T05:07:53.461Z,30
2018-04-08T05:08:18.970Z,30
2018-04-08T05:08:44.468Z,30
2018-04-08T05:09:09.960Z,35
2018-04-08T05:09:35.454Z,35
2018-04-08T05:10:00.950Z,35
2018-04-08T05:10:26.448Z,35
2018-04-08T05:10:51.954Z,35
2018-04-08T05:11:17.446Z,35
2018-04-08T05:11:42.958Z,35
2018-04-08T05:12:08.460Z,40
2018-04-08T05:12:33.953Z,40
2018-04-08T05:12:59.452Z,40
2018-04-08T05:13:24.954Z,40
2018-04-08T05:13:50.491Z,40
2018-04-08T05:14:15.953Z,40
2018-04-08T05:14:41.453Z,40
2018-04-08T05:15:06.953Z,40
2018-04-08T05:15:32.452Z,40
2018-04-08T05:15:57.967Z,45
2018-04-08T05:16:23.459Z,45
2018-04-08T05:16:48.952Z,45
2018-04-08T05:17:14.454Z,45
2018-04-08T05:17:39.954Z,50
2018-04-08T05:18:05.453Z,50
2018-04-08T05:18:30.959Z,50
2018-04-08T05:18:56.461Z,55
2018-04-08T05:19:21.946Z,55
2018-04-08T05:19:47.441Z,55
2018-04-08T05:20:12.941Z,60
2018-04-08T05:20:38.439Z,60
2018-04-08T05:21:03.941Z,60
2018-04-08T05:21:29.442Z,60
2018-04-08T05:21:54.943Z,65
2018-04-08T05:22:20.443Z,65
2018-04-08T05:22:45.948Z,65
2018-04-08T05:23:11.447Z,65
2018-04-08T05:23:36.888Z,70
2018-04-08T05:24:02.392Z,70
2018-04-08T05:24:27.886Z,70
2018-04-08T05:24:53.365Z,70
2018-04-08T05:25:18.871Z,70
2018-04-08T05:25:44.381Z,75
2018-04-08T05:26:09.877Z,75
2018-04-08T05:26:35.373Z,75
2018-04-08T05:27:00.873Z,75
2018-04-08T05:27:26.372Z,75
2018-04-08T05:27:51.870Z,80
2018-04-08T05:28:17.367Z,80
2018-04-08T05:28:42.870Z,80
2018-04-08T05:29:08.373Z,80
2018-04-08T05:29:33.873Z,80
2018-04-08T05:29:59.373Z,80
2018-04-08T05:30:24.866Z,85
2018-04-08T05:30:50.366Z,85
2018-04-08T05:31:15.860Z,85
2018-04-08T05:31:41.337Z,85
2018-04-08T05:32:06.834Z,85
2018-04-08T05:32:32.319Z,85
2018-04-08T05:32:57.781Z,85
2018-04-08T05:33:23.281Z,85
2018-04-08T05:33:48.746Z,85
2018-04-08T05:34:14.240Z,85
2018-04-08T05:34:39.738Z,85
2018-04-08T05:35:05.226Z,85
2018-04-08T05:35:30.678Z,85
2018-04-08T05:35:56.157Z,85
2018-04-08T05:36:21.605Z,85
2018-04-08T05:36:47.074Z,85
2018-04-08T05:37:12.562Z,90
2018-04-08T05:37:38.010Z,90
2018-04-08T05:39:07.068Z,90
2018-04-08T05:39:32.565Z,90
2018-04-08T05:39:58.064Z,90
2018-04-08T05:40:23.520Z,90
2018-04-08T05:40:48.982Z,95
2018-04-08T05:41:14.457Z,95
2018-04-08T05:41:39.924Z,95
2018-04-08T05:42:05.374Z,95
2018-04-08T05:42:30.823Z,100
2018-04-08T05:42:56.306Z,100
2018-04-08T05:43:21.793Z,105
2018-04-08T05:43:47.254Z,105
2018-04-08T05:44:12.741Z,105
2018-04-08T05:44:38.189Z,105
2018-04-08T05:45:03.703Z,110
2018-04-08T05:45:29.181Z,110
2018-04-08T05:45:54.664Z,110
2018-04-08T05:46:20.140Z,110
2018-04-08T05:46:45.660Z,110
2018-04-08T05:47:11.147Z,110
2018-04-08T05:47:36.663Z,110
2018-04-08T05:48:02.154Z,110
2018-04-08T05:48:27.644Z,110
2018-04-08T05:48:53.140Z,115
2018-04-08T05:49:18.630Z,115
2018-04-08T05:49:44.120Z,120
2018-04-08T05:50:09.609Z,115
2018-04-08T05:50:35.087Z,115
2018-04-08T05:51:00.583Z,115
2018-04-08T05:51:26.077Z,115
2018-04-08T05:51:51.548Z,115
2018-04-08T05:52:17.035Z,120
2018-04-08T05:52:42.536Z,120
2018-04-08T05:53:08.030Z,120
2018-04-08T05:53:33.544Z,125
2018-04-08T05:53:59.044Z,125
2018-04-08T05:54:24.541Z,125
2018-04-08T05:54:50.051Z,130
2018-04-08T05:55:15.542Z,130
2018-04-08T05:55:41.037Z,130
2018-04-08T05:56:06.541Z,130
2018-04-08T05:56:32.035Z,135
2018-04-08T05:56:57.528Z,130
2018-04-08T05:57:23.026Z,135
2018-04-08T05:57:48.516Z,135
2018-04-08T05:58:14.013Z,135
2018-04-08T05:58:39.466Z,135
2018-04-08T05:59:04.931Z,135
2018-04-08T05:59:30.377Z,135
2018-04-08T05:59:55.831Z,130
2018-04-08T06:00:21.306Z,130
2018-04-08T06:00:46.764Z,130
2018-04-08T06:01:55.472Z,130
2018-04-08T06:02:20.965Z,125
2018-04-08T06:02:46.460Z,120
2018-04-08T06:03:11.940Z,115
2018-04-08T06:03:37.428Z,115
2018-04-08T06:04:02.889Z,115
2018-04-08T06:04:28.331Z,110
2018-04-08T06:04:53.823Z,110
2018-04-08T06:05:19.275Z,110
2018-04-08T06:05:44.753Z,110
2018-04-08T06:06:10.254Z,110
2018-04-08T06:06:35.752Z,110
2018-04-08T06:07:01.227Z,110
2018-04-08T06:08:20.174Z,110
2018-04-08T06:08:45.671Z,110
2018-04-08T06:09:11.170Z,110
2018-04-08T06:09:36.669Z,105
2018-04-08T06:10:02.170Z,105
2018-04-08T06:10:27.674Z,105
2018-04-08T06:10:53.212Z,105
2018-04-08T06:11:18.672Z,105
2018-04-08T06:11:44.165Z,105
2018-04-08T06:12:09.651Z,105
2018-04-08T06:12:35.128Z,105
2018-04-08T06:13:00.576Z,100
2018-04-08T06:13:26.046Z,100
2018-04-08T06:13:51.500Z,100
2018-04-08T06:14:16.965Z,100
2018-04-08T06:14:42.501Z,100
2018-04-08T06:15:08.025Z,100
2018-04-08T06:15:33.519Z,100
2018-04-08T06:15:59.023Z,100
2018-04-08T06:16:24.541Z,95
2018-04-08T06:16:50.027Z,95
2018-04-08T06:17:15.527Z,95
2018-04-08T06:17:41.041Z,95
2018-04-08T06:18:06.497Z,95
2018-04-08T06:18:31.986Z,95
2018-04-08T06:18:57.494Z,95
2018-04-08T06:19:22.999Z,95
2018-04-08T06:19:48.501Z,90
2018-04-08T06:20:13.995Z,90
2018-04-08T06:20:39.494Z,90
2018-04-08T06:21:04.987Z,95
2018-04-08T06:21:30.482Z,95
2018-04-08T06:21:55.986Z,95
2018-04-08T06:22:21.491Z,95
2018-04-08T06:22:46.983Z,95
2018-04-08T06:23:12.486Z,95
2018-04-08T06:23:37.980Z,95
2018-04-08T06:24:03.493Z,95
2018-04-08T06:24:28.994Z,95
2018-04-08T06:24:54.551Z,95
2018-04-08T06:25:20.011Z,95
2018-04-08T06:25:45.511Z,95
2018-04-08T06:26:11.016Z,95
2018-04-08T06:26:36.541Z,95
2018-04-08T06:27:02.041Z,95
2018-04-08T06:27:27.547Z,95
2018-04-08T06:27:53.046Z,95
2018-04-08T06:28:18.545Z,95
2018-04-08T06:28:44.041Z,95
2018-04-08T06:29:09.537Z,100
2018-04-08T06:29:35.041Z,100
2018-04-08T06:30:00.525Z,100
2018-04-08T06:30:26.020Z,100
2018-04-08T06:30:51.518Z,100
2018-04-08T06:31:17.019Z,105
2018-04-08T06:31:42.530Z,100
2018-04-08T06:32:08.019Z,100
2018-04-08T06:32:33.521Z,100
2018-04-08T06:32:59.024Z,100
2018-04-08T06:33:24.529Z,100
2018-04-08T06:33:50.026Z,100
2018-04-08T06:34:15.533Z,100
2018-04-08T06:34:41.044Z,100
2018-04-08T06:35:06.546Z,100
2018-04-08T06:35:32.050Z,100
2018-04-08T06:35:57.548Z,100
2018-04-08T06:36:23.051Z,100
2018-04-08T06:36:48.540Z,100
2018-04-08T06:37:14.030Z,100
2018-04-08T06:37:39.513Z,100
2018-04-08T06:38:05.004Z,100
2018-04-08T06:38:30.508Z,100
2018-04-08T06:38:56.004Z,100
2018-04-08T06:39:21.518Z,100
2018-04-08T06:39:47.029Z,100
2018-04-08T06:40:12.516Z,105
2018-04-08T06:40:38.052Z,105
2018-04-08T06:41:03.542Z,105
2018-04-08T06:41:29.067Z,105
2018-04-08T06:41:54.565Z,110
2018-04-08T06:42:20.060Z,110
2018-04-08T06:42:45.567Z,110
2018-04-08T06:43:11.060Z,110
2018-04-08T06:43:36.572Z,110
2018-04-08T06:44:02.058Z,115
2018-04-08T06:44:27.563Z,115
2018-04-08T06:44:53.059Z,115
2018-04-08T06:45:18.579Z,120
2018-04-08T06:45:44.078Z,120
2018-04-08T06:46:09.571Z,120
2018-04-08T06:46:35.074Z,125
2018-04-08T06:47:00.575Z,125
2018-04-08T06:47:26.079Z,125
2018-04-08T06:47:51.588Z,130
2018-04-08T06:48:17.107Z,130
2018-04-08T06:48:42.602Z,130
2018-04-08T06:49:08.114Z,135
2018-04-08T06:49:33.614Z,135
2018-04-08T06:49:59.121Z,135
2018-04-08T06:50:24.623Z,135
2018-04-08T06:50:50.137Z,135
2018-04-08T06:51:15.658Z,135
2018-04-08T06:51:41.152Z,135
2018-04-08T06:52:06.650Z,135
2018-04-08T06:52:32.153Z,140
2018-04-08T06:52:57.655Z,140
2018-04-08T06:53:23.156Z,140
2018-04-08T06:53:48.655Z,140
2018-04-08T06:54:14.154Z,140
2018-04-08T06:54:39.646Z,140
2018-04-08T06:55:05.138Z,140
2018-04-08T06:55:30.631Z,140
2018-04-08T06:55:56.147Z,145
2018-04-08T06:56:21.669Z,145
2018-04-08T06:56:47.131Z,145
2018-04-08T06:57:12.672Z,145
2018-04-08T06:57:38.289Z,145
2018-04-08T06:58:03.758Z,145
2018-04-08T06:58:29.252Z,145
2018-04-08T06:58:54.753Z,150
2018-04-08T06:59:20.285Z,150
2018-04-08T06:59:45.741Z,150
2018-04-08T07:00:11.220Z,150
2018-04-08T07:00:36.727Z,150
2018-04-08T07:01:02.229Z,150
2018-04-08T07:01:27.724Z,150
2018-04-08T07:01:53.184Z,150
2018-04-08T07:02:18.652Z,155
2018-04-08T07:02:44.234Z,155
2018-04-08T07:03:09.752Z,155
2018-04-08T07:03:35.250Z,155
2018-04-08T07:04:00.743Z,155
2018-04-08T07:04:26.246Z,155
2018-04-08T07:04:51.751Z,160
2018-04-08T07:05:17.296Z,160
2018-04-08T07:05:42.740Z,160
2018-04-08T07:06:08.242Z,160
2018-04-08T07:06:33.735Z,160
2018-04-08T07:06:59.224Z,165
2018-04-08T07:07:24.736Z,165
2018-04-08T07:07:50.219Z,165
2018-04-08T07:08:15.722Z,170
2018-04-08T07:08:41.222Z,170
2018-04-08T07:09:06.772Z,170
2018-04-08T07:09:32.260Z,175
2018-04-08T07:09:57.753Z,175
2018-04-08T07:10:23.232Z,180
2018-04-08T07:10:48.736Z,180
2018-04-08T07:11:14.242Z,180
2018-04-08T07:11:39.731Z,185
2018-04-08T07:12:05.239Z,185
2018-04-08T07:12:30.723Z,185
2018-04-08T07:12:56.244Z,190
2018-04-08T07:13:21.717Z,190
2018-04-08T07:13:47.221Z,190
2018-04-08T07:14:12.722Z,190
2018-04-08T07:14:38.222Z,190
2018-04-08T07:15:03.720Z,190
2018-04-08T07:15:29.225Z,190
2018-04-08T07:15:54.721Z,190
2018-04-08T07:16:20.208Z,190
2018-04-08T07:16:45.708Z,200
2018-04-08T07:17:11.210Z,200
2018-04-08T07:17:36.704Z,195
2018-04-08T07:18:02.202Z,195
2018-04-08T07:18:27.774Z,195
2018-04-08T07:18:53.204Z,195
2018-04-08T07:19:18.704Z,200
2018-04-08T07:19:44.203Z,200
2018-04-08T07:20:09.699Z,200
2018-04-08T07:20:35.191Z,205
2018-04-08T07:21:00.696Z,210
2018-04-08T07:21:26.188Z,210
2018-04-08T07:21:51.665Z,210
2018-04-08T07:22:17.163Z,215
2018-04-08T07:22:42.671Z,220
2018-04-08T07:23:08.156Z,215
2018-04-08T07:23:33.666Z,215
2018-04-08T07:23:59.185Z,220
2018-04-08T07:24:24.706Z,215
2018-04-08T07:24:50.247Z,215
2018-04-08T07:25:15.719Z,215
2018-04-08T07:25:41.181Z,220
2018-04-08T07:26:06.672Z,220
2018-04-08T07:26:32.140Z,220
2018-04-08T07:26:57.627Z,220
2018-04-08T07:27:23.111Z,220
2018-04-08T07:27:48.600Z,215
2018-04-08T07:28:14.117Z,215
2018-04-08T07:28:39.631Z,215
2018-04-08T07:29:05.100Z,215
2018-04-08T07:29:30.611Z,215
2018-04-08T07:29:56.092Z,215
2018-04-08T07:30:21.589Z,215
2018-04-08T07:30:47.064Z,215
2018-04-08T07:31:12.546Z,215
2018-04-08T07:31:38.054Z,210
2018-04-08T07:32:03.548Z,210
2018-04-08T07:32:29.042Z,215
2018-04-08T07:32:54.542Z,210
2018-04-08T07:33:20.064Z,210
2018-04-08T07:33:45.551Z,210
2018-04-08T07:34:11.055Z,210
2018-04-08T07:34:36.526Z,210
2018-04-08T07:35:02.006Z,210
2018-04-08T07:35:27.544Z,215
2018-04-08T07:35:53.045Z,215
2018-04-08T07:36:18.541Z,220
2018-04-08T07:36:44.040Z,225
2018-04-08T07:37:09.547Z,225
2018-04-08T07:37:35.047Z,230
2018-04-08T07:38:00.555Z,230
2018-04-08T07:38:26.040Z,235
2018-04-08T07:38:51.543Z,235
2018-04-08T07:39:17.051Z,240
2018-04-08T07:39:42.552Z,240
2018-04-08T07:40:08.053Z,240
2018-04-08T07:40:33.568Z,240
2018-04-08T07:40:59.065Z,240
2018-04-08T07:41:24.560Z,240
2018-04-08T07:41:50.058Z,240
2018-04-08T07:42:15.540Z,240
2018-04-08T07:42:41.039Z,235
2018-04-08T07:43:06.538Z,235
2018-04-08T07:43:32.053Z,235
2018-04-08T07:43:57.545Z,235
2018-04-08T07:44:23.051Z,245
2018-04-08T07:44:48.537Z,255
2018-04-08T07:45:14.038Z,245
2018-04-08T07:45:39.538Z,245
2018-04-08T07:46:05.037Z,245
2018-04-08T07:46:30.537Z,245
2018-04-08T07:46:56.046Z,240
2018-04-08T07:47:21.548Z,245
2018-04-08T07:47:47.047Z,250
2018-04-08T07:48:12.561Z,250
2018-04-08T07:48:38.041Z,250
2018-04-08T07:49:03.538Z,245
2018-04-08T07:49:29.045Z,245
2018-04-08T07:49:54.544Z,240
2018-04-08T07:50:20.042Z,240
2018-04-08T07:50:45.542Z,235
2018-04-08T07:51:11.038Z,235
2018-04-08T07:51:36.548Z,235
2018-04-08T07:52:02.047Z,235
2018-04-08T07:52:27.544Z,230
2018-04-08T07:52:53.039Z,225
2018-04-08T07:53:18.517Z,225
2018-04-08T07:53:44.025Z,225
2018-04-08T07:54:09.531Z,225
2018-04-08T07:54:35.020Z,220
2018-04-08T07:55:00.522Z,220
2018-04-08T07:55:26.020Z,215
2018-04-08T07:55:51.516Z,210
2018-04-08T07:56:17.009Z,205
2018-04-08T07:56:42.532Z,210
2018-04-08T07:57:08.017Z,215
2018-04-08T07:57:33.500Z,215
2018-04-08T07:57:58.997Z,210
2018-04-08T07:58:24.488Z,190
2018-04-08T07:58:49.980Z,190
2018-04-08T07:59:15.504Z,185
2018-04-08T07:59:41.016Z,190
2018-04-08T08:00:06.486Z,205
2018-04-08T08:00:31.988Z,195
2018-04-08T08:00:57.497Z,185
2018-04-08T08:01:23.010Z,185
2018-04-08T08:01:48.516Z,190
2018-04-08T08:02:14.025Z,190
2018-04-08T08:02:39.527Z,190
2018-04-08T08:03:05.027Z,190
2018-04-08T08:03:30.531Z,185
2018-04-08T08:03:56.025Z,190
2018-04-08T08:04:21.526Z,195
2018-04-08T08:04:47.035Z,190
2018-04-08T08:05:12.539Z,180
2018-04-08T08:05:38.035Z,180
2018-04-08T08:06:03.537Z,180
2018-04-08T08:06:29.046Z,175
2018-04-08T08:06:54.550Z,175
2018-04-08T08:07:20.015Z,175
2018-04-08T08:07:45.509Z,170
2018-04-08T08:08:10.993Z,170
2018-04-08T08:08:36.499Z,170
2018-04-08T08:09:02.024Z,175
2018-04-08T08:09:27.530Z,180
2018-04-08T08:09:53.034Z,185
2018-04-08T08:10:18.526Z,175
2018-04-08T08:10:44.031Z,170
2018-04-08T08:11:09.549Z,170
2018-04-08T08:11:35.038Z,170
2018-04-08T08:12:00.544Z,175
2018-04-08T08:12:26.052Z,175
2018-04-08T08:12:51.562Z,170
2018-04-08T08:13:17.062Z,170
2018-04-08T08:13:42.568Z,175
2018-04-08T08:14:08.065Z,175
2018-04-08T08:14:33.568Z,185
2018-04-08T08:14:59.074Z,190
2018-04-08T08:15:24.592Z,195
2018-04-08T08:15:50.094Z,180
2018-04-08T08:16:15.602Z,180
2018-04-08T08:16:41.098Z,180
2018-04-08T08:17:06.587Z,180
2018-04-08T08:17:32.089Z,185
2018-04-08T08:17:57.596Z,185
2018-04-08T08:18:23.093Z,190
2018-04-08T08:18:48.597Z,195
2018-04-08T08:19:14.076Z,200
2018-04-08T08:19:39.592Z,195
2018-04-08T08:20:05.092Z,195
2018-04-08T08:20:30.602Z,195
2018-04-08T08:20:56.124Z,195
2018-04-08T08:21:21.620Z,195
2018-04-08T08:21:47.124Z,195
2018-04-08T08:22:12.627Z,195
2018-04-08T08:22:38.138Z,190
2018-04-08T08:23:03.707Z,185
2018-04-08T08:23:29.142Z,190
2018-04-08T08:23:54.657Z,190
2018-04-08T08:24:20.151Z,195
2018-04-08T08:24:45.654Z,190
2018-04-08T08:25:11.163Z,190
2018-04-08T08:25:36.661Z,195
2018-04-08T08:26:02.159Z,195
2018-04-08T08:26:27.682Z,195
2018-04-08T08:26:53.185Z,195
2018-04-08T08:27:18.687Z,190
2018-04-08T08:27:44.190Z,195
2018-04-08T08:28:09.696Z,200
2018-04-08T08:28:35.196Z,205
2018-04-08T08:29:00.695Z,205
2018-04-08T08:29:26.201Z,205
2018-04-08T08:29:51.702Z,205
2018-04-08T08:30:17.203Z,205
2018-04-08T08:30:42.712Z,205
2018-04-08T08:31:08.209Z,205
2018-04-08T08:31:33.709Z,200
2018-04-08T08:31:59.216Z,200
2018-04-08T08:32:24.732Z,200
2018-04-08T08:32:50.221Z,200
2018-04-08T08:33:15.726Z,195
2018-04-08T08:33:41.223Z,195
2018-04-08T08:34:06.721Z,195
2018-04-08T08:34:32.219Z,190
2018-04-08T08:34:57.717Z,195
2018-04-08T08:35:23.218Z,195
2018-04-08T08:35:48.724Z,200
2018-04-08T08:36:14.236Z,200
2018-04-08T08:36:39.742Z,200
2018-04-08T08:37:05.243Z,200
2018-04-08T08:37:30.738Z,205
2018-04-08T08:37:56.234Z,210
2018-04-08T08:38:21.735Z,205
2018-04-08T08:38:47.230Z,205
2018-04-08T08:39:12.729Z,200
2018-04-08T08:39:38.231Z,200
2018-04-08T08:40:03.735Z,200
2018-04-08T08:40:29.238Z,200
2018-04-08T08:40:54.738Z,200
2018-04-08T08:41:20.245Z,195
2018-04-08T08:41:45.796Z,200
2018-04-08T08:42:11.252Z,200
2018-04-08T08:42:36.758Z,200
2018-04-08T08:43:02.263Z,200
2018-04-08T08:43:27.775Z,195
2018-04-08T08:43:53.284Z,200
2018-04-08T08:44:18.790Z,200
2018-04-08T08:44:44.280Z,200
2018-04-08T08:45:09.782Z,200
2018-04-08T08:45:35.281Z,205
2018-04-08T08:46:00.768Z,210
2018-04-08T08:46:26.278Z,210
2018-04-08T08:46:51.797Z,210
2018-04-08T08:47:17.288Z,210
2018-04-08T08:47:42.786Z,210
2018-04-08T08:48:08.292Z,215
2018-04-08T08:48:33.801Z,215
2018-04-08T08:48:59.312Z,215
2018-04-08T08:49:24.808Z,215
2018-04-08T08:49:50.314Z,220
2018-04-08T08:50:15.813Z,220
2018-04-08T08:50:41.319Z,220
2018-04-08T08:51:06.827Z,220
2018-04-08T08:51:32.329Z,225
2018-04-08T08:51:57.841Z,225
2018-04-08T08:52:23.338Z,225
2018-04-08T08:52:48.848Z,225
2018-04-08T08:53:14.343Z,225
2018-04-08T08:53:39.852Z,225
2018-04-08T08:54:05.369Z,225
2018-04-08T08:54:30.851Z,220
2018-04-08T08:54:56.471Z,220
2018-04-08T08:55:21.856Z,215
2018-04-08T08:55:47.363Z,215
2018-04-08T08:56:12.869Z,215
2018-04-08T08:56:38.379Z,215
2018-04-08T08:57:03.880Z,215
2018-04-08T08:57:29.378Z,215
2018-04-08T08:57:54.871Z,215
2018-04-08T08:58:20.372Z,215
2018-04-08T08:58:45.881Z,215
2018-04-08T08:59:11.386Z,210
2018-04-08T08:59:36.894Z,210
2018-04-08T09:00:02.404Z,210
2018-04-08T09:00:27.915Z,210
2018-04-08T09:00:53.410Z,210
2018-04-08T09:01:18.912Z,210
2018-04-08T09:01:44.417Z,215
2018-04-08T09:02:09.915Z,215
2018-04-08T09:02:35.419Z,215
2018-04-08T09:03:00.923Z,220
2018-04-08T09:03:26.430Z,220
2018-04-08T09:03:51.940Z,220
2018-04-08T09:04:17.439Z,220
2018-04-08T09:04:42.958Z,220
2018-04-08T09:05:08.468Z,220
2018-04-08T09:05:33.979Z,220
2018-04-08T09:05:59.468Z,225
2018-04-08T09:06:24.973Z,230
2018-04-08T09:06:50.539Z,230
2018-04-08T09:07:15.984Z,235
2018-04-08T09:07:41.492Z,235
2018-04-08T09:08:06.989Z,235
2018-04-08T09:08:32.492Z,235
2018-04-08T09:08:58.004Z,235
2018-04-08T09:09:23.517Z,235
2018-04-08T09:09:49.026Z,235
2018-04-08T09:10:14.546Z,240
2018-04-08T09:10:40.051Z,245
2018-04-08T09:11:05.551Z,245
2018-04-08T09:11:31.050Z,255
2018-04-08T09:11:56.577Z,250
2018-04-08T09:12:22.074Z,255
2018-04-08T09:12:47.596Z,250
2018-04-08T09:13:13.080Z,245
2018-04-08T09:13:38.586Z,245
2018-04-08T09:14:04.100Z,245
2018-04-08T09:14:29.601Z,245
2018-04-08T09:14:55.106Z,250
2018-04-08T09:15:20.617Z,255
2018-04-08T09:15:46.128Z,255
2018-04-08T09:16:11.640Z,260
2018-04-08T09:16:37.144Z,260
2018-04-08T09:17:02.644Z,260
2018-04-08T09:17:28.163Z,260
2018-04-08T09:17:53.648Z,260
2018-04-08T09:18:19.148Z,265
2018-04-08T09:18:44.690Z,250
2018-04-08T09:19:10.189Z,250
2018-04-08T09:19:35.714Z,250
2018-04-08T09:20:01.203Z,245
2018-04-08T09:20:26.728Z,240
2018-04-08T09:20:52.240Z,245
2018-04-08T09:21:17.734Z,250
2018-04-08T09:21:43.232Z,250
2018-04-08T09:22:08.727Z,245
2018-04-08T09:22:34.224Z,250
2018-04-08T09:22:59.726Z,240
2018-04-08T09:23:25.246Z,235
2018-04-08T09:23:50.744Z,235
2018-04-08T09:24:16.335Z,235
2018-04-08T09:24:41.752Z,235
2018-04-08T09:25:07.252Z,230
2018-04-08T09:25:32.754Z,230
2018-04-08T09:25:58.254Z,230
2018-04-08T09:26:23.763Z,220
2018-04-08T09:26:49.264Z,215
2018-04-08T09:27:14.770Z,215
2018-04-08T09:27:40.266Z,210
2018-04-08T09:28:05.787Z,205
2018-04-08T09:28:31.288Z,205
2018-04-08T09:28:56.792Z,205
2018-04-08T09:29:22.292Z,205
2018-04-08T09:29:47.795Z,200
2018-04-08T09:30:13.292Z,200
2018-04-08T09:30:38.793Z,200
2018-04-08T09:31:04.288Z,195
2018-04-08T09:31:29.788Z,200
2018-04-08T09:31:55.294Z,195
2018-04-08T09:32:20.783Z,195
2018-04-08T09:32:46.295Z,195
2018-04-08T09:33:11.800Z,195
2018-04-08T09:33:37.305Z,195
2018-04-08T09:34:02.809Z,200
2018-04-08T09:34:28.332Z,200
2018-04-08T09:34:53.836Z,205
2018-04-08T09:35:19.347Z,205
2018-04-08T09:35:44.851Z,205
2018-04-08T09:36:10.345Z,205
2018-04-08T09:36:35.845Z,205
2018-04-08T09:37:01.345Z,205
2018-04-08T09:37:26.852Z,205
2018-04-08T09:37:52.351Z,205
2018-04-08T09:38:17.868Z,205
2018-04-08T09:38:43.368Z,200
2018-04-08T09:39:08.878Z,200
2018-04-08T09:39:34.389Z,200
2018-04-08T09:39:59.899Z,200
2018-04-08T09:40:25.417Z,205
2018-04-08T09:40:50.904Z,210
2018-04-08T09:41:16.422Z,215
2018-04-08T09:41:41.930Z,220
2018-04-08T09:42:07.431Z,225
2018-04-08T09:42:32.953Z,225
2018-04-08T09:42:58.446Z,225
2018-04-08T09:43:23.972Z,230
2018-04-08T09:43:49.467Z,235
2018-04-08T09:44:14.953Z,240
2018-04-08T09:44:40.455Z,245
2018-04-08T09:45:05.964Z,250
2018-04-08T09:45:31.463Z,255
2018-04-08T09:45:56.966Z,255
2018-04-08T09:46:22.468Z,260
2018-04-08T09:46:47.969Z,260
2018-04-08T09:47:13.478Z,265
2018-04-08T09:47:38.977Z,275
2018-04-08T09:48:04.485Z,280
2018-04-08T09:48:29.988Z,285
2018-04-08T09:48:55.483Z,290
2018-04-08T09:49:20.980Z,290
2018-04-08T09:49:46.477Z,290
2018-04-08T09:50:11.981Z,290
2018-04-08T09:50:37.481Z,290
2018-04-08T09:51:02.986Z,290
2018-04-08T09:51:28.489Z,290
2018-04-08T09:51:53.987Z,290
2018-04-08T09:52:19.484Z,295
2018-04-08T09:52:44.986Z,285
2018-04-08T09:53:10.487Z,285
2018-04-08T09:53:35.982Z,285
2018-04-08T09:54:01.484Z,280
2018-04-08T09:54:26.991Z,285
2018-04-08T09:54:52.488Z,285
2018-04-08T09:55:17.989Z,290
2018-04-08T09:55:43.491Z,290
2018-04-08T09:56:08.988Z,295
2018-04-08T09:56:34.493Z,300
2018-04-08T09:56:59.999Z,295
2018-04-08T09:57:25.513Z,300
2018-04-08T09:57:51.021Z,300
2018-04-08T09:58:16.515Z,300
2018-04-08T09:58:42.017Z,300
2018-04-08T09:59:07.517Z,300
2018-04-08T09:59:33.025Z,300
2018-04-08T09:59:58.531Z,300